Archival Weather

Ambodedjo

Ambodedjo, Mali (GAMB)

Report from: Wednesday, December 6, 2023 11:00 AM GMT
Current time: Friday, February 23, 2024 9:11 PM GMT

Current weather – Weather history – Daily summaries
Weather forecast

Temperature33.0°C (91.4°F)
Heat index30.7°C (87.3°F)
Dew point4.0°C (39.2°F)
Winds 6 kts (3.1 m/s, 6.9 mph) North-Northeast (20°)
Clouds Sky clear
Altimeter29.94 in.Hg (1014 mB)
Relative humidity16 %
Density altitude2,150 ft. (655 m)
Remarks Ceiling and visibility OK
Flight conditions Visual Meteorological Conditions
Raw dataGAMB 061100Z 02006KT CAVOK 33/04 Q1014
An error has occurred. This application may no longer respond until reloaded. Reload 🗙